createdAt,value
2022-08-21T00:00:46.908Z,11.29
2022-08-21T00:03:48.256Z,11.25
2022-08-21T00:06:50.617Z,11.24
2022-08-21T00:09:52.608Z,11.20
2022-08-21T00:12:53.980Z,11.19
2022-08-21T00:15:55.338Z,11.16
2022-08-21T00:18:56.726Z,11.11
2022-08-21T00:21:58.070Z,11.25
2022-08-21T00:24:59.399Z,11.20
2022-08-21T00:28:02.698Z,11.10
2022-08-21T00:31:07.131Z,11.08
2022-08-21T00:34:08.466Z,11.09
2022-08-21T00:37:09.808Z,11.20
2022-08-21T00:40:13.047Z,11.24
2022-08-21T00:43:15.273Z,11.15
2022-08-21T00:46:16.717Z,11.00
2022-08-21T00:49:18.458Z,10.88
2022-08-21T00:52:23.721Z,10.82
2022-08-21T00:55:25.074Z,10.96
2022-08-21T00:58:27.595Z,11.03
2022-08-21T01:01:28.969Z,10.95
2022-08-21T01:04:30.348Z,10.89
2022-08-21T01:07:32.146Z,10.78
2022-08-21T01:10:33.907Z,10.75
2022-08-21T01:13:35.961Z,10.76
2022-08-21T01:16:37.305Z,10.75
2022-08-21T01:19:38.645Z,10.78
2022-08-21T01:22:40.105Z,10.76
2022-08-21T01:25:41.519Z,10.70
2022-08-21T01:28:45.037Z,10.67
2022-08-21T01:31:46.893Z,10.69
2022-08-21T01:34:48.590Z,10.64
2022-08-21T01:37:49.967Z,10.63
2022-08-21T01:40:51.308Z,10.58
2022-08-21T01:43:52.649Z,10.64
2022-08-21T01:46:55.550Z,10.66
2022-08-21T01:49:56.930Z,10.67
2022-08-21T01:52:58.616Z,10.73
2022-08-21T01:56:00.309Z,10.66
2022-08-21T01:59:01.679Z,10.65
2022-08-21T02:02:03.057Z,10.55
2022-08-21T02:05:05.981Z,10.46
2022-08-21T02:08:07.593Z,10.44
2022-08-21T02:11:09.033Z,10.45
2022-08-21T02:14:12.292Z,10.42
2022-08-21T02:17:14.061Z,10.39
2022-08-21T02:20:19.681Z,10.32
2022-08-21T02:23:21.013Z,10.21
2022-08-21T02:26:29.488Z,10.13
2022-08-21T02:29:30.851Z,10.24
2022-08-21T02:32:32.227Z,10.35
2022-08-21T02:35:33.587Z,10.30
2022-08-21T02:38:35.526Z,10.18
2022-08-21T02:41:36.860Z,10.11
2022-08-21T02:44:38.196Z,10.10
2022-08-21T02:47:39.865Z,10.10
2022-08-21T02:50:44.071Z,10.18
2022-08-21T02:53:45.492Z,10.26
2022-08-21T02:56:46.863Z,10.18
2022-08-21T02:59:48.375Z,10.08
2022-08-21T03:02:49.759Z,9.99
2022-08-21T03:05:51.113Z,10.00
2022-08-21T03:08:52.440Z,9.94
2022-08-21T03:11:55.078Z,9.89
2022-08-21T03:14:56.408Z,9.89
2022-08-21T03:17:57.783Z,9.88
2022-08-21T03:20:59.149Z,9.88
2022-08-21T03:24:00.484Z,9.84
2022-08-21T03:27:05.687Z,9.84
2022-08-21T03:30:11.115Z,9.81
2022-08-21T03:33:13.165Z,9.77
2022-08-21T03:36:16.424Z,9.81
2022-08-21T03:39:17.914Z,9.82
2022-08-21T03:42:19.281Z,9.83
2022-08-21T03:45:20.659Z,9.78
2022-08-21T03:48:22.036Z,9.77
2022-08-21T03:51:23.413Z,9.78
2022-08-21T03:54:24.726Z,9.73
2022-08-21T03:57:26.089Z,9.74
2022-08-21T04:00:27.457Z,9.71
2022-08-21T04:03:28.806Z,9.60
2022-08-21T04:06:33.462Z,9.56
2022-08-21T04:09:38.675Z,9.68
2022-08-21T04:12:40.066Z,9.78
2022-08-21T04:15:42.073Z,9.70
2022-08-21T04:18:43.696Z,9.70
2022-08-21T04:21:45.072Z,9.57
2022-08-21T04:24:47.569Z,9.53
2022-08-21T04:27:48.940Z,9.52
2022-08-21T04:30:51.244Z,9.50
2022-08-21T04:33:52.566Z,9.50
2022-08-21T04:36:53.916Z,9.56
2022-08-21T04:39:57.524Z,9.67
2022-08-21T04:43:00.835Z,9.68
2022-08-21T04:46:02.239Z,9.70
2022-08-21T04:49:03.610Z,9.61
2022-08-21T04:52:05.394Z,9.49
2022-08-21T04:55:06.879Z,9.51
2022-08-21T04:58:08.734Z,9.51
2022-08-21T05:01:12.496Z,9.52
2022-08-21T05:04:14.756Z,9.54
2022-08-21T05:07:17.382Z,9.51
2022-08-21T05:10:38.730Z,9.49
2022-08-21T05:13:42.247Z,9.49
2022-08-21T05:16:44.838Z,9.48
2022-08-21T05:19:46.352Z,9.57
2022-08-21T05:22:47.712Z,9.58
2022-08-21T05:25:49.339Z,9.66
2022-08-21T05:28:50.688Z,9.70
2022-08-21T05:31:52.391Z,9.79
2022-08-21T05:34:54.523Z,9.84
2022-08-21T05:37:55.909Z,9.91
2022-08-21T05:40:57.384Z,9.99
2022-08-21T05:43:58.865Z,10.10
2022-08-21T05:47:18.285Z,10.23
2022-08-21T05:50:20.291Z,10.33
2022-08-21T05:53:21.853Z,10.39
2022-08-21T05:56:23.274Z,10.46
2022-08-21T05:59:24.703Z,10.55
2022-08-21T06:02:26.118Z,10.60
2022-08-21T06:05:36.854Z,10.72
2022-08-21T06:08:38.994Z,10.84
2022-08-21T06:11:40.460Z,10.89
2022-08-21T06:14:42.006Z,10.97
2022-08-21T06:17:43.377Z,11.11
2022-08-21T06:20:45.733Z,11.21
2022-08-21T06:23:47.137Z,11.30
2022-08-21T06:26:48.704Z,11.38
2022-08-21T06:29:50.054Z,11.39
2022-08-21T06:32:51.475Z,11.40
2022-08-21T06:35:52.923Z,11.46
2022-08-21T06:38:54.296Z,11.59
2022-08-21T06:41:58.697Z,11.74
2022-08-21T06:45:00.626Z,11.84
2022-08-21T06:48:02.402Z,11.98
2022-08-21T06:51:03.761Z,12.13
2022-08-21T06:54:05.095Z,12.23
2022-08-21T06:57:06.438Z,12.38
2022-08-21T07:00:08.880Z,12.54
2022-08-21T07:03:28.114Z,12.70
2022-08-21T07:06:29.612Z,12.85
2022-08-21T07:09:35.363Z,12.97
2022-08-21T07:12:36.825Z,13.11
2022-08-21T07:15:38.180Z,13.27
2022-08-21T07:18:39.526Z,13.46
2022-08-21T07:21:40.887Z,13.61
2022-08-21T07:24:42.249Z,13.77
2022-08-21T07:27:43.595Z,13.92
2022-08-21T07:30:45.088Z,14.08
2022-08-21T07:33:46.452Z,14.30
2022-08-21T07:36:48.047Z,14.51
2022-08-21T07:39:52.058Z,14.72
2022-08-21T07:42:54.089Z,14.94
2022-08-21T07:45:55.672Z,15.20
2022-08-21T07:48:57.022Z,15.50
2022-08-21T07:51:58.507Z,15.77
2022-08-21T07:55:02.835Z,16.00
2022-08-21T07:58:07.681Z,16.21
2022-08-21T08:01:09.055Z,16.56
2022-08-21T08:04:10.486Z,16.82
2022-08-21T08:07:11.849Z,17.11
2022-08-21T08:10:13.212Z,17.42
2022-08-21T08:13:14.557Z,17.65
2022-08-21T08:16:16.033Z,17.85
2022-08-21T08:19:17.395Z,18.21
2022-08-21T08:22:20.299Z,18.59
2022-08-21T08:25:21.744Z,18.93
2022-08-21T08:28:23.068Z,19.57
2022-08-21T08:31:24.791Z,19.97
2022-08-21T08:34:26.192Z,20.32
2022-08-21T08:37:29.478Z,20.58
2022-08-21T08:40:56.586Z,20.99
2022-08-21T08:44:02.492Z,21.01
2022-08-21T08:47:03.925Z,20.99
2022-08-21T08:50:22.439Z,21.15
2022-08-21T08:53:31.349Z,21.37
2022-08-21T08:56:33.454Z,21.48
2022-08-21T08:59:41.702Z,21.93
2022-08-21T09:02:45.613Z,22.58
2022-08-21T09:05:48.312Z,23.22
2022-08-21T09:08:57.714Z,23.84
2022-08-21T09:12:04.772Z,23.23
2022-08-21T09:15:13.510Z,23.50
2022-08-21T09:18:14.883Z,24.23
2022-08-21T09:21:18.757Z,24.92
2022-08-21T09:24:29.352Z,24.06
2022-08-21T09:27:30.703Z,23.74
2022-08-21T09:30:33.041Z,23.76
2022-08-21T09:33:34.387Z,23.33
2022-08-21T09:36:45.884Z,23.28
2022-08-21T09:39:48.939Z,23.91
2022-08-21T09:43:26.880Z,23.78
2022-08-21T09:46:28.823Z,23.84
2022-08-21T09:49:30.760Z,23.79
2022-08-21T09:52:32.122Z,23.85
2022-08-21T09:55:53.375Z,23.84
2022-08-21T09:58:54.708Z,23.78
2022-08-21T10:01:56.679Z,24.48
2022-08-21T10:04:59.527Z,24.44
2022-08-21T10:08:01.465Z,24.32
2022-08-21T10:11:10.059Z,24.25
2022-08-21T10:14:11.353Z,24.80
2022-08-21T10:17:12.691Z,25.13
2022-08-21T10:20:24.644Z,24.66
2022-08-21T10:23:44.921Z,24.91
2022-08-21T10:26:53.660Z,25.50
2022-08-21T10:29:57.261Z,25.15
2022-08-21T10:33:17.354Z,24.77
2022-08-21T10:36:18.704Z,24.59
2022-08-21T10:39:35.479Z,24.30
2022-08-21T10:42:56.631Z,24.37
2022-08-21T10:46:00.797Z,24.43
2022-08-21T10:49:08.204Z,24.72
2022-08-21T10:52:09.460Z,24.73
2022-08-21T10:55:15.578Z,25.25
2022-08-21T10:58:22.298Z,25.06
2022-08-21T11:01:25.745Z,24.94
2022-08-21T11:04:35.962Z,24.81
2022-08-21T11:07:53.884Z,24.14
2022-08-21T11:11:00.485Z,23.96
2022-08-21T11:14:05.699Z,24.80
2022-08-21T11:17:12.056Z,25.15
2022-08-21T11:20:15.204Z,24.85
2022-08-21T11:23:26.627Z,25.37
2022-08-21T11:26:32.405Z,25.29
2022-08-21T11:29:37.721Z,25.20
2022-08-21T11:32:48.043Z,25.06
2022-08-21T11:35:52.358Z,25.27
2022-08-21T11:39:13.806Z,25.89
2022-08-21T11:42:15.159Z,26.09
2022-08-21T11:45:22.667Z,26.33
2022-08-21T11:48:33.420Z,25.79
2022-08-21T11:51:37.608Z,25.94
2022-08-21T11:54:44.722Z,26.15
2022-08-21T11:57:49.108Z,25.84
2022-08-21T12:00:55.277Z,26.02
2022-08-21T12:03:58.948Z,26.41
2022-08-21T12:07:11.090Z,26.52
2022-08-21T12:10:13.589Z,26.45
2022-08-21T12:13:36.645Z,26.49
2022-08-21T12:16:43.051Z,26.20
2022-08-21T12:19:44.547Z,26.40
2022-08-21T12:22:50.473Z,26.01
2022-08-21T12:26:01.328Z,25.67
2022-08-21T12:29:06.646Z,26.36
2022-08-21T12:32:11.013Z,26.86
2022-08-21T12:35:24.752Z,27.24
2022-08-21T12:38:30.702Z,26.54
2022-08-21T12:41:33.465Z,26.76
2022-08-21T12:44:44.905Z,27.16
2022-08-21T12:47:48.201Z,27.05
2022-08-21T12:50:50.911Z,26.92
2022-08-21T12:53:56.041Z,26.63
2022-08-21T12:57:01.402Z,26.42
2022-08-21T13:00:05.285Z,26.71
2022-08-21T13:03:06.637Z,26.57
2022-08-21T13:06:09.043Z,26.80
2022-08-21T13:09:17.143Z,27.09
2022-08-21T13:12:18.659Z,26.78
2022-08-21T13:15:23.600Z,26.12
2022-08-21T13:18:26.694Z,26.25
2022-08-21T13:21:29.561Z,27.13
2022-08-21T13:24:46.192Z,26.54
2022-08-21T13:27:58.441Z,26.75
2022-08-21T13:31:02.430Z,27.30
2022-08-21T13:34:03.774Z,27.72
2022-08-21T13:37:05.887Z,27.76
2022-08-21T13:40:08.831Z,27.67
2022-08-21T13:43:21.961Z,26.84
2022-08-21T13:46:23.408Z,27.10
2022-08-21T13:49:27.534Z,27.13
2022-08-21T13:52:29.955Z,27.19
2022-08-21T13:55:38.649Z,27.36
2022-08-21T13:58:43.867Z,27.09
2022-08-21T14:01:58.135Z,27.52
2022-08-21T14:05:00.174Z,27.47
2022-08-21T14:08:03.947Z,27.28
2022-08-21T14:11:05.709Z,27.82
2022-08-21T14:14:14.629Z,27.73
2022-08-21T14:17:33.589Z,27.64
2022-08-21T14:20:35.606Z,27.61
2022-08-21T14:23:37.023Z,27.56
2022-08-21T14:26:44.889Z,26.90
2022-08-21T14:29:46.534Z,26.58
2022-08-21T14:32:48.106Z,26.88
2022-08-21T14:35:49.576Z,26.61
2022-08-21T14:38:50.907Z,26.35
2022-08-21T14:41:52.253Z,26.31
2022-08-21T14:44:53.627Z,26.59
2022-08-21T14:47:55.383Z,26.34
2022-08-21T14:51:00.496Z,26.22
2022-08-21T14:54:02.195Z,26.38
2022-08-21T14:57:07.445Z,26.26
2022-08-21T15:00:09.325Z,25.96
2022-08-21T15:03:12.556Z,26.03
2022-08-21T15:06:13.935Z,26.17
2022-08-21T15:09:15.295Z,26.37
2022-08-21T15:12:16.712Z,26.43
2022-08-21T15:15:18.068Z,26.67
2022-08-21T15:18:25.096Z,26.11
2022-08-21T15:21:26.448Z,26.06
2022-08-21T15:24:27.817Z,26.26
2022-08-21T15:27:29.324Z,26.43
2022-08-21T15:30:31.141Z,26.10
2022-08-21T15:33:32.724Z,25.99
2022-08-21T15:36:34.093Z,26.08
2022-08-21T15:39:37.252Z,26.16
2022-08-21T15:42:39.811Z,26.21
2022-08-21T15:45:41.159Z,26.16
2022-08-21T15:48:42.522Z,26.26
2022-08-21T15:51:43.945Z,26.17
2022-08-21T15:54:45.312Z,26.26
2022-08-21T15:57:57.509Z,26.23
2022-08-21T16:01:00.629Z,26.00
2022-08-21T16:04:02.122Z,25.86
2022-08-21T16:07:08.981Z,25.87
2022-08-21T16:10:10.943Z,25.76
2022-08-21T16:13:14.616Z,25.75
2022-08-21T16:16:17.225Z,25.73
2022-08-21T16:19:19.314Z,25.79
2022-08-21T16:22:20.683Z,25.87
2022-08-21T16:25:22.022Z,25.72
2022-08-21T16:28:24.644Z,25.61
2022-08-21T16:31:26.096Z,25.57
2022-08-21T16:34:28.511Z,25.58
2022-08-21T16:37:29.928Z,25.57
2022-08-21T16:40:31.346Z,25.60
2022-08-21T16:43:32.685Z,25.62
2022-08-21T16:46:35.058Z,25.54
2022-08-21T16:49:36.667Z,25.43
2022-08-21T16:52:38.027Z,25.37
2022-08-21T16:55:39.461Z,25.38
2022-08-21T16:58:42.658Z,25.28
2022-08-21T17:01:44.299Z,25.07
2022-08-21T17:04:45.687Z,25.04
2022-08-21T17:07:47.103Z,24.98
2022-08-21T17:10:48.963Z,24.86
2022-08-21T17:13:50.328Z,24.77
2022-08-21T17:16:52.278Z,24.66
2022-08-21T17:19:53.645Z,24.53
2022-08-21T17:22:55.081Z,24.37
2022-08-21T17:25:57.289Z,24.24
2022-08-21T17:28:58.668Z,23.94
2022-08-21T17:32:00.104Z,23.54
2022-08-21T17:35:02.306Z,23.41
2022-08-21T17:38:03.670Z,23.17
2022-08-21T17:41:06.294Z,22.89
2022-08-21T17:44:09.395Z,22.59
2022-08-21T17:47:10.811Z,22.34
2022-08-21T17:50:12.582Z,22.14
2022-08-21T17:53:13.967Z,21.86
2022-08-21T17:56:15.421Z,21.62
2022-08-21T17:59:17.244Z,21.52
2022-08-21T18:02:19.527Z,21.32
2022-08-21T18:05:21.594Z,21.19
2022-08-21T18:08:23.149Z,21.05
2022-08-21T18:11:25.720Z,20.91
2022-08-21T18:14:28.103Z,20.80
2022-08-21T18:17:32.557Z,20.49
2022-08-21T18:20:33.917Z,20.32
2022-08-21T18:23:43.883Z,20.24
2022-08-21T18:26:45.934Z,20.19
2022-08-21T18:29:47.852Z,20.11
2022-08-21T18:32:49.418Z,20.02
2022-08-21T18:35:50.768Z,19.91
2022-08-21T18:38:53.262Z,19.67
2022-08-21T18:41:54.644Z,19.55
2022-08-21T18:44:56.949Z,19.46
2022-08-21T18:47:58.383Z,19.38
2022-08-21T18:50:59.745Z,19.26
2022-08-21T18:54:01.261Z,19.21
2022-08-21T18:57:05.657Z,19.21
2022-08-21T19:00:11.850Z,19.08
2022-08-21T19:03:21.066Z,19.04
2022-08-21T19:06:25.391Z,19.02
2022-08-21T19:09:26.780Z,18.99
2022-08-21T19:12:29.637Z,18.75
2022-08-21T19:15:32.366Z,18.72
2022-08-21T19:18:35.446Z,18.70
2022-08-21T19:21:37.299Z,18.68
2022-08-21T19:24:40.141Z,18.61
2022-08-21T19:27:51.613Z,18.49
2022-08-21T19:34:25.929Z,18.33
2022-08-21T19:37:27.813Z,18.27
2022-08-21T19:40:29.207Z,18.22
2022-08-21T19:43:31.755Z,18.27
2022-08-21T19:49:56.637Z,18.23
2022-08-21T19:52:58.086Z,18.18
2022-08-21T19:55:59.597Z,18.02
2022-08-21T19:59:02.261Z,17.88
2022-08-21T20:02:06.843Z,17.72
2022-08-21T20:05:08.636Z,17.57
2022-08-21T20:08:11.785Z,17.42
2022-08-21T20:11:26.410Z,17.39
2022-08-21T20:14:30.842Z,17.35
2022-08-21T20:17:32.270Z,17.28
2022-08-21T20:20:33.610Z,17.33
2022-08-21T20:23:36.581Z,17.37
2022-08-21T20:26:49.382Z,17.33
2022-08-21T20:29:51.381Z,17.30
2022-08-21T20:32:52.805Z,17.20
2022-08-21T20:35:54.181Z,17.17
2022-08-21T20:38:55.754Z,17.10
2022-08-21T20:41:57.331Z,16.95
2022-08-21T20:44:58.691Z,16.79
2022-08-21T20:48:14.119Z,16.87
2022-08-21T20:51:21.291Z,16.72
2022-08-21T20:54:31.101Z,16.60
2022-08-21T20:57:33.779Z,16.49
2022-08-21T21:00:36.852Z,16.38
2022-08-21T21:03:45.199Z,16.32
2022-08-21T21:06:50.166Z,16.37
2022-08-21T21:09:52.424Z,16.43
2022-08-21T21:12:54.531Z,16.42
2022-08-21T21:15:56.639Z,16.35
2022-08-21T21:19:00.532Z,16.23
2022-08-21T21:22:04.887Z,16.25
2022-08-21T21:25:13.756Z,16.35
2022-08-21T21:28:20.302Z,16.33
2022-08-21T21:31:21.987Z,16.31
2022-08-21T21:34:24.099Z,16.36
2022-08-21T21:37:37.979Z,16.34
2022-08-21T21:40:51.088Z,16.36
2022-08-21T21:44:01.566Z,16.32
2022-08-21T21:47:21.603Z,16.24
2022-08-21T21:50:33.439Z,16.21
2022-08-21T21:53:41.842Z,16.24
2022-08-21T21:56:55.267Z,16.25
2022-08-21T22:00:05.042Z,16.25
2022-08-21T22:03:15.764Z,16.30
2022-08-21T22:06:32.424Z,16.35
2022-08-21T22:09:34.265Z,16.38
2022-08-21T22:16:00.964Z,16.32
2022-08-21T22:19:06.579Z,16.37
2022-08-21T22:22:13.555Z,16.32
2022-08-21T22:25:17.991Z,16.34
2022-08-21T22:28:20.360Z,16.27
2022-08-21T22:31:28.198Z,16.18
2022-08-21T22:34:31.922Z,16.17
2022-08-21T22:37:38.020Z,16.21
2022-08-21T22:40:39.362Z,16.24
2022-08-21T22:43:54.255Z,16.16
2022-08-21T22:46:56.254Z,16.09
2022-08-21T22:50:04.316Z,15.99
2022-08-21T22:53:07.043Z,16.00
2022-08-21T22:56:08.541Z,16.06
2022-08-21T22:59:22.230Z,16.02
2022-08-21T23:02:42.279Z,15.94
2022-08-21T23:05:44.221Z,15.81
2022-08-21T23:08:46.260Z,15.65
2022-08-21T23:11:51.597Z,15.57
2022-08-21T23:14:54.945Z,15.55
2022-08-21T23:18:05.688Z,15.61
2022-08-21T23:21:26.053Z,15.67
2022-08-21T23:24:49.909Z,15.59
2022-08-21T23:27:57.717Z,15.67
2022-08-21T23:31:17.872Z,15.52
2022-08-21T23:34:20.051Z,15.40
2022-08-21T23:37:49.282Z,15.37
2022-08-21T23:40:56.206Z,15.43
2022-08-21T23:44:07.219Z,15.46
2022-08-21T23:47:15.843Z,15.51
2022-08-21T23:50:25.139Z,15.57
2022-08-21T23:53:35.689Z,15.57
2022-08-21T23:56:46.311Z,15.61
